Time;durP1;ratioP1;P1;durP2;ratioP2;P2;SDS_P1;SDS_P2;PMS_P1;PMS_P2;Temp;Humidity;BMP_temperature;BMP_pressure;BME280_temperature;BME280_humidity;BME280_pressure;Samples;Min_cycle;Max_cycle;Signal;HPM_P1;HPM_P2
2023/01/31 00:00:08;;;;;;;31.85;28.58;;;9.40;99.90;;;;;;5012889;28;20457;-82
2023/01/31 00:02:34;;;;;;;31.92;28.63;;;9.50;99.90;;;;;;5032974;28;20494;-82
2023/01/31 00:05:01;;;;;;;31.27;27.98;;;9.40;99.90;;;;;;5014228;28;20406;-82
2023/01/31 00:07:27;;;;;;;31.90;26.77;;;9.40;99.90;;;;;;5033278;28;20474;-82
2023/01/31 00:09:53;;;;;;;29.92;26.85;;;9.30;99.90;;;;;;5015928;28;20038;-82
2023/01/31 00:12:19;;;;;;;31.80;28.05;;;9.30;99.90;;;;;;5031208;28;20021;-82
2023/01/31 00:14:45;;;;;;;33.95;29.80;;;9.30;99.90;;;;;;5015668;28;20450;-83
2023/01/31 00:17:11;;;;;;;34.20;29.63;;;9.20;99.90;;;;;;5031424;28;20040;-82
2023/01/31 00:19:37;;;;;;;29.00;26.10;;;9.10;99.90;;;;;;5033510;28;20364;-82
2023/01/31 00:22:03;;;;;;;39.72;28.08;;;9.10;99.90;;;;;;5015769;28;20101;-82
2023/01/31 00:24:29;;;;;;;31.40;28.10;;;9.10;99.90;;;;;;5032742;28;20400;-82
2023/01/31 00:26:55;;;;;;;29.30;26.63;;;9.00;99.90;;;;;;5029780;28;20032;-82
2023/01/31 00:29:23;;;;;;;30.35;27.15;;;8.90;99.90;;;;;;5003688;28;20395;-82
2023/01/31 00:31:49;;;;;;;30.63;27.45;;;8.90;99.90;;;;;;5005656;28;20479;-82
2023/01/31 00:34:15;;;;;;;28.25;25.58;;;8.90;99.90;;;;;;5033015;28;20032;-83
2023/01/31 00:36:41;;;;;;;28.40;25.55;;;8.90;99.90;;;;;;5031245;28;20033;-82
2023/01/31 00:39:07;;;;;;;26.90;24.50;;;9.00;99.90;;;;;;5033659;28;20030;-82
2023/01/31 00:41:34;;;;;;;26.35;23.60;;;9.00;99.90;;;;;;5004186;28;20041;-82
2023/01/31 00:44:01;;;;;;;27.35;24.55;;;9.00;99.90;;;;;;5032280;28;20463;-82
2023/01/31 00:46:27;;;;;;;27.20;24.58;;;8.90;99.90;;;;;;5004993;28;20048;-82
2023/01/31 00:48:54;;;;;;;25.83;23.42;;;8.80;99.90;;;;;;5005787;28;20040;-82
2023/01/31 00:51:20;;;;;;;28.17;25.17;;;8.80;99.90;;;;;;5013420;28;20052;-82
2023/01/31 00:53:47;;;;;;;26.85;24.27;;;8.70;99.90;;;;;;5010006;28;20029;-82
2023/01/31 00:56:14;;;;;;;26.90;23.95;;;8.70;99.90;;;;;;4997047;28;20045;-82
2023/01/31 00:58:40;;;;;;;27.73;23.35;;;8.70;99.90;;;;;;5012678;28;20018;-82
2023/01/31 01:01:15;;;;;;;25.50;23.10;;;8.70;99.90;;;;;;5020048;28;20053;-82
2023/01/31 01:03:42;;;;;;;24.03;21.63;;;8.70;99.90;;;;;;5013775;28;20509;-82
2023/01/31 01:06:08;;;;;;;25.25;22.85;;;8.60;99.90;;;;;;5010055;28;20053;-82
2023/01/31 01:08:34;;;;;;;27.10;24.27;;;8.40;99.90;;;;;;5027794;28;20487;-83
2023/01/31 01:11:11;;;;;;;23.35;21.05;;;8.40;99.90;;;;;;4999144;28;20036;-83
2023/01/31 01:13:37;;;;;;;25.50;21.63;;;8.40;99.90;;;;;;5033276;28;20038;-82
2023/01/31 01:16:08;;;;;;;25.02;22.65;;;8.40;99.90;;;;;;5013544;28;20360;-83
2023/01/31 01:18:34;;;;;;;23.05;20.85;;;8.40;99.90;;;;;;4996862;28;20049;-83
2023/01/31 01:21:20;;;;;;;21.95;19.70;;;8.50;99.90;;;;;;4994447;28;20042;-82
2023/01/31 01:23:47;;;;;;;22.33;20.30;;;8.50;99.90;;;;;;5030202;28;20040;-83
2023/01/31 01:26:20;;;;;;;22.83;20.83;;;8.40;99.90;;;;;;5026694;28;20049;-82
2023/01/31 01:28:47;;;;;;;22.43;20.07;;;8.40;99.90;;;;;;5025622;28;20032;-82
2023/01/31 01:31:15;;;;;;;20.80;18.95;;;8.30;99.90;;;;;;5029772;28;20037;-82
2023/01/31 01:33:41;;;;;;;21.07;19.07;;;8.30;99.90;;;;;;5015853;28;20045;-82
2023/01/31 01:36:10;;;;;;;20.67;18.67;;;8.30;99.90;;;;;;5008161;28;20029;-82
2023/01/31 01:38:36;;;;;;;20.13;18.45;;;8.30;99.90;;;;;;5013461;28;20037;-82
2023/01/31 01:41:03;;;;;;;19.88;18.17;;;8.30;99.90;;;;;;5006483;28;20025;-82
2023/01/31 01:43:54;;;;;;;22.20;19.30;;;8.20;99.90;;;;;;5032138;28;20036;-82
2023/01/31 01:46:35;;;;;;;22.27;20.27;;;8.20;99.90;;;;;;5030082;28;20041;-82
2023/01/31 01:49:19;;;;;;;;;;;8.20;99.90;;;;;;5006888;28;20028;-82
2023/01/31 01:51:47;;;;;;;21.63;19.50;;;8.20;99.90;;;;;;5028441;28;19913;-82
2023/01/31 01:54:16;;;;;;;22.05;19.88;;;8.20;99.90;;;;;;5013603;28;20037;-82
2023/01/31 01:56:44;;;;;;;24.00;21.42;;;8.20;99.90;;;;;;5013384;28;20025;-82
2023/01/31 01:59:22;;;;;;;23.37;20.17;;;8.20;99.90;;;;;;4998028;28;20036;-82
2023/01/31 02:01:49;;;;;;;25.23;20.23;;;8.20;99.90;;;;;;5013360;28;20041;-82
2023/01/31 02:04:17;;;;;;;20.97;18.90;;;8.10;99.90;;;;;;5008697;28;20399;-82
2023/01/31 02:06:44;;;;;;;21.17;19.25;;;8.10;99.90;;;;;;5005492;28;20041;-82
2023/01/31 02:09:19;;;;;;;21.77;19.77;;;8.10;99.90;;;;;;5008861;28;20049;-82
2023/01/31 02:11:45;;;;;;;20.90;18.93;;;8.10;99.90;;;;;;5012688;28;20392;-82
2023/01/31 02:14:11;;;;;;;22.73;20.33;;;8.10;99.90;;;;;;5031640;28;20029;-82
2023/01/31 02:16:37;;;;;;;23.48;20.67;;;8.00;99.90;;;;;;5007106;28;20056;-81
2023/01/31 02:19:05;;;;;;;22.00;20.00;;;8.00;99.90;;;;;;5015095;28;20029;-82
2023/01/31 02:21:40;;;;;;;21.87;19.77;;;7.90;99.90;;;;;;5012942;28;20041;-82
2023/01/31 02:24:21;;;;;;;22.27;20.00;;;7.90;99.90;;;;;;5027034;28;20041;-81
2023/01/31 02:27:17;;;;;;;23.85;21.13;;;7.90;99.90;;;;;;5025396;28;20048;-82
2023/01/31 02:30:11;;;;;;;23.07;20.63;;;7.90;99.90;;;;;;5006833;28;20429;-82
2023/01/31 02:32:52;;;;;;;24.90;20.60;;;7.90;99.90;;;;;;5027847;28;20517;-82
2023/01/31 02:35:27;;;;;;;40.30;22.20;;;7.80;99.90;;;;;;5011388;28;20037;-82
2023/01/31 02:38:30;;;;;;;32.43;21.60;;;7.90;99.90;;;;;;5027568;28;20509;-82
2023/01/31 02:40:59;;;;;;;28.13;21.50;;;7.80;99.90;;;;;;4970148;28;20047;-82
2023/01/31 02:46:56;;;;;;;22.13;20.10;;;7.90;99.90;;;;;;4938087;28;20059;-81
2023/01/31 02:49:33;;;;;;;22.63;20.43;;;7.90;99.90;;;;;;4951722;29;20042;-82
2023/01/31 02:52:27;;;;;;;22.93;20.63;;;7.90;99.90;;;;;;4948277;28;20043;-82
2023/01/31 02:57:40;;;;;;;24.53;22.13;;;7.90;99.90;;;;;;4940381;29;20141;-82
2023/01/31 03:00:08;;;;;;;26.03;22.50;;;7.80;99.90;;;;;;4931116;28;20039;-82
2023/01/31 03:02:34;;;;;;;24.70;22.40;;;7.80;99.90;;;;;;4941079;28;20047;-82
2023/01/31 03:05:00;;;;;;;24.77;22.37;;;7.90;99.90;;;;;;4940331;28;20055;-82
2023/01/31 03:07:28;;;;;;;24.50;21.83;;;7.90;99.90;;;;;;4943628;29;20035;-82
2023/01/31 03:09:54;;;;;;;24.23;21.87;;;7.90;99.90;;;;;;4938328;28;20047;-83
2023/01/31 03:12:38;;;;;;;24.67;22.43;;;7.90;99.90;;;;;;4939466;29;20506;-83
2023/01/31 03:15:19;;;;;;;24.73;22.23;;;7.90;99.90;;;;;;4936797;28;20520;-82
2023/01/31 03:18:09;;;;;;;23.88;21.38;;;7.90;99.90;;;;;;4963576;28;20058;-82
2023/01/31 03:20:45;;;;;;;24.00;21.50;;;7.80;99.90;;;;;;4958474;28;20399;-83
2023/01/31 03:23:23;;;;;;;23.53;20.30;;;7.80;99.90;;;;;;5009827;28;20034;-82
2023/01/31 03:25:49;;;;;;;23.83;21.53;;;7.90;99.90;;;;;;5012917;28;20045;-83
2023/01/31 03:28:19;;;;;;;23.63;20.97;;;7.90;99.90;;;;;;5014924;28;20028;-83
2023/01/31 03:31:07;;;;;;;29.43;22.33;;;8.00;99.90;;;;;;4995827;28;20041;-81
2023/01/31 03:33:38;;;;;;;28.33;21.60;;;8.00;99.90;;;;;;4980581;28;20034;-82
2023/01/31 03:36:24;;;;;;;23.70;20.45;;;8.00;99.90;;;;;;5014164;28;20028;-83
2023/01/31 03:39:04;;;;;;;23.87;20.73;;;8.00;99.90;;;;;;4987199;28;20511;-82
2023/01/31 03:41:31;;;;;;;24.23;21.67;;;8.00;99.90;;;;;;4986952;28;20050;-82
2023/01/31 03:44:09;;;;;;;23.93;21.20;;;8.00;99.90;;;;;;4956904;28;20054;-82
2023/01/31 03:46:42;;;;;;;23.57;21.10;;;7.90;99.90;;;;;;4952447;28;20058;-82
2023/01/31 03:49:09;;;;;;;23.33;20.60;;;7.90;99.90;;;;;;4922783;29;20043;-82
2023/01/31 03:51:37;;;;;;;25.13;22.17;;;7.80;99.90;;;;;;4917523;29;20039;-82
2023/01/31 03:54:04;;;;;;;28.80;21.50;;;7.80;99.90;;;;;;4935922;28;20428;-82
2023/01/31 03:56:46;;;;;;;25.00;22.13;;;7.90;99.90;;;;;;4955879;28;20551;-82
2023/01/31 03:59:15;;;;;;;23.10;20.70;;;8.00;99.90;;;;;;4955289;28;20031;-82
2023/01/31 04:01:47;;;;;;;24.83;22.23;;;8.00;99.90;;;;;;4955351;28;20042;-83
2023/01/31 04:04:38;;;;;;;23.67;21.33;;;7.90;99.90;;;;;;4971004;28;20051;-82
2023/01/31 04:07:05;;;;;;;;;;;7.90;99.90;;;;;;4961886;28;20051;-82
2023/01/31 04:09:32;;;;;;;23.07;20.47;;;7.90;99.90;;;;;;4954000;28;19910;-82
2023/01/31 04:12:01;;;;;;;21.93;19.77;;;7.80;99.90;;;;;;4965527;28;20035;-82
2023/01/31 04:14:27;;;;;;;22.10;19.93;;;7.90;99.90;;;;;;4973375;28;20030;-82
2023/01/31 04:16:53;;;;;;;24.47;21.03;;;8.00;99.90;;;;;;4992618;28;20045;-82
2023/01/31 04:19:19;;;;;;;22.47;20.17;;;8.00;99.90;;;;;;5014994;28;20034;-83
2023/01/31 04:21:45;;;;;;;24.67;20.50;;;8.00;99.90;;;;;;4996931;28;20535;-82
2023/01/31 04:24:12;;;;;;;22.77;20.47;;;8.10;99.90;;;;;;5016050;28;20032;-83
2023/01/31 04:26:38;;;;;;;23.73;21.00;;;8.00;99.90;;;;;;5031381;28;20049;-83
2023/01/31 04:29:04;;;;;;;23.00;20.50;;;8.00;99.90;;;;;;4998227;28;20037;-83
2023/01/31 04:31:30;;;;;;;22.73;20.33;;;8.00;99.90;;;;;;5013212;28;20038;-84
2023/01/31 04:33:56;;;;;;;22.67;20.37;;;8.00;99.90;;;;;;5014258;28;20048;-84
2023/01/31 04:36:24;;;;;;;26.33;21.03;;;8.00;99.90;;;;;;5022520;28;20037;-84
2023/01/31 04:38:50;;;;;;;22.97;20.67;;;8.00;99.90;;;;;;5024498;28;20037;-84
2023/01/31 04:41:16;;;;;;;23.67;20.63;;;8.00;99.90;;;;;;5004383;28;20021;-84
2023/01/31 04:43:42;;;;;;;21.87;19.87;;;7.90;99.90;;;;;;5015516;28;20022;-84
2023/01/31 04:46:08;;;;;;;22.63;20.40;;;7.90;99.90;;;;;;5032918;28;20537;-84
2023/01/31 04:48:34;;;;;;;1968.57;240.03;;;7.90;99.90;;;;;;5015192;28;20030;-83
2023/01/31 04:51:00;;;;;;;26.93;21.83;;;7.90;99.90;;;;;;5014046;28;20036;-84
2023/01/31 04:53:26;;;;;;;89.43;26.07;;;7.80;99.90;;;;;;5013699;28;20411;-84
2023/01/31 04:55:53;;;;;;;418.80;73.33;;;7.90;99.90;;;;;;5006437;28;20030;-84
2023/01/31 04:58:20;;;;;;;287.57;33.07;;;7.90;99.90;;;;;;5015491;28;20466;-84
2023/01/31 05:00:46;;;;;;;24.27;21.77;;;7.90;99.90;;;;;;5012967;28;20391;-84
2023/01/31 05:03:12;;;;;;;581.60;44.97;;;7.90;99.90;;;;;;5031578;28;20041;-84
2023/01/31 05:05:38;;;;;;;24.50;21.73;;;7.90;99.90;;;;;;5026381;28;20053;-84
2023/01/31 05:08:05;;;;;;;24.47;21.20;;;7.90;99.90;;;;;;5030445;28;20029;-83
2023/01/31 05:10:31;;;;;;;23.17;20.77;;;7.90;99.90;;;;;;5024744;28;20037;-85
2023/01/31 05:12:57;;;;;;;21.97;19.97;;;7.90;99.90;;;;;;5010532;28;20049;-83
2023/01/31 05:15:23;;;;;;;24.37;21.50;;;7.90;99.90;;;;;;5029285;28;20448;-84
2023/01/31 05:17:53;;;;;;;42.30;22.00;;;7.90;99.90;;;;;;5004939;28;20034;-84
2023/01/31 05:20:20;;;;;;;25.83;21.43;;;7.90;99.90;;;;;;5013279;28;20022;-84
2023/01/31 05:22:47;;;;;;;23.23;20.83;;;7.90;99.90;;;;;;5030911;28;20041;-83
2023/01/31 05:25:14;;;;;;;23.13;20.93;;;7.90;99.90;;;;;;5023511;28;20026;-84
2023/01/31 05:27:40;;;;;;;23.33;20.77;;;7.90;99.90;;;;;;4997064;28;20044;-84
2023/01/31 05:30:07;;;;;;;22.80;20.50;;;8.00;99.90;;;;;;5013066;28;20630;-84
2023/01/31 05:32:35;;;;;;;198.77;27.93;;;8.00;99.90;;;;;;5008227;28;20038;-85
2023/01/31 05:35:01;;;;;;;25.77;21.83;;;8.00;99.90;;;;;;4995730;28;20034;-85
2023/01/31 05:37:27;;;;;;;22.27;19.93;;;8.00;99.90;;;;;;4995607;28;20038;-85
2023/01/31 05:39:53;;;;;;;21.17;19.23;;;8.00;99.90;;;;;;4994758;28;20037;-85
2023/01/31 05:42:19;;;;;;;21.73;19.50;;;8.00;99.90;;;;;;5012819;28;20036;-84
2023/01/31 05:44:45;;;;;;;22.17;19.90;;;8.00;99.90;;;;;;4986966;28;20034;-84
2023/01/31 05:47:11;;;;;;;21.70;19.70;;;8.10;99.90;;;;;;5026532;28;20042;-85
2023/01/31 05:49:38;;;;;;;22.53;18.80;;;8.00;99.90;;;;;;5002036;28;20046;-84
2023/01/31 05:52:04;;;;;;;24.03;19.10;;;7.90;99.90;;;;;;4995143;28;20034;-83
2023/01/31 05:54:30;;;;;;;23.87;20.17;;;7.90;99.90;;;;;;4994893;28;20022;-85
2023/01/31 05:56:56;;;;;;;21.53;18.93;;;7.90;99.90;;;;;;4994822;28;20041;-84
2023/01/31 05:59:22;;;;;;;22.67;19.70;;;8.00;99.90;;;;;;5009595;28;20033;-84
2023/01/31 06:01:48;;;;;;;20.23;18.33;;;8.00;99.90;;;;;;5014146;28;20037;-84
2023/01/31 06:04:14;;;;;;;21.50;19.43;;;8.00;99.90;;;;;;5014714;28;20506;-85
2023/01/31 06:06:41;;;;;;;23.47;20.40;;;8.00;99.90;;;;;;4996337;28;20498;-84
2023/01/31 06:09:08;;;;;;;21.47;19.23;;;8.00;99.90;;;;;;5031855;28;20490;-84
2023/01/31 06:11:34;;;;;;;21.43;19.27;;;8.00;99.90;;;;;;5032222;28;20029;-85
2023/01/31 06:14:00;;;;;;;21.77;19.43;;;8.00;99.90;;;;;;4997982;28;20037;-85
2023/01/31 06:16:26;;;;;;;21.33;19.20;;;8.00;99.90;;;;;;5012307;28;20057;-85
2023/01/31 06:18:54;;;;;;;22.07;19.73;;;8.00;99.90;;;;;;4995157;28;20037;-85
2023/01/31 06:21:20;;;;;;;21.30;19.10;;;8.10;99.90;;;;;;5022728;28;20052;-85
2023/01/31 06:23:46;;;;;;;19.97;18.07;;;8.10;99.90;;;;;;5031842;28;20029;-84
2023/01/31 06:26:13;;;;;;;21.77;17.87;;;8.10;99.90;;;;;;5014615;28;20037;-85
2023/01/31 06:28:39;;;;;;;24.77;19.70;;;8.10;99.90;;;;;;5013992;28;20046;-84
2023/01/31 06:31:09;;;;;;;24.43;19.83;;;8.00;99.90;;;;;;5014196;28;20052;-85
2023/01/31 06:33:35;;;;;;;21.80;19.73;;;8.00;99.90;;;;;;5014637;28;20462;-85
2023/01/31 06:36:01;;;;;;;23.53;21.13;;;8.00;99.90;;;;;;5013188;28;20087;-84
2023/01/31 06:38:28;;;;;;;27.10;24.03;;;7.90;99.90;;;;;;4980565;28;20026;-85
2023/01/31 06:40:54;;;;;;;34.13;25.93;;;7.90;99.90;;;;;;4978946;28;20033;-84
2023/01/31 06:43:20;;;;;;;32.47;27.20;;;7.90;99.90;;;;;;4978435;28;20030;-85
2023/01/31 06:45:48;;;;;;;32.17;27.53;;;7.90;99.90;;;;;;4994352;28;20598;-85
2023/01/31 06:48:14;;;;;;;31.87;25.13;;;8.00;99.90;;;;;;4994556;28;20038;-85
2023/01/31 06:50:41;;;;;;;36.47;25.23;;;8.00;99.90;;;;;;4990008;28;20030;-85
2023/01/31 06:53:07;;;;;;;26.50;23.23;;;7.90;99.90;;;;;;5013845;28;20399;-84
2023/01/31 06:55:33;;;;;;;30.90;25.50;;;7.90;99.90;;;;;;5015775;28;20033;-85
2023/01/31 06:57:59;;;;;;;31.73;26.70;;;7.90;99.90;;;;;;5035586;28;20029;-85
2023/01/31 07:00:25;;;;;;;27.67;22.20;;;8.00;99.90;;;;;;5017666;28;20041;-85
2023/01/31 07:02:51;;;;;;;24.65;21.88;;;8.00;99.90;;;;;;5034615;28;20026;-85
2023/01/31 07:05:18;;;;;;;25.60;22.43;;;7.90;99.90;;;;;;5017360;28;20044;-85
2023/01/31 07:07:45;;;;;;;29.13;24.20;;;7.90;99.90;;;;;;5017757;28;20056;-85
2023/01/31 07:10:11;;;;;;;25.95;20.92;;;8.00;99.90;;;;;;5016855;28;20045;-85
2023/01/31 07:12:37;;;;;;;142.03;28.97;;;8.00;99.90;;;;;;5018083;28;20175;-85
2023/01/31 07:15:04;;;;;;;989.80;71.63;;;8.00;99.90;;;;;;5017073;28;20040;-84
2023/01/31 07:17:32;;;;;;;22.83;20.43;;;8.00;99.90;;;;;;5028176;28;20034;-84
2023/01/31 07:19:58;;;;;;;28.13;21.10;;;8.00;99.90;;;;;;4999303;28;20034;-85
2023/01/31 07:22:24;;;;;;;24.47;21.13;;;8.00;99.90;;;;;;5017568;28;20026;-84
2023/01/31 07:24:50;;;;;;;25.03;21.83;;;8.00;99.90;;;;;;5012367;28;20033;-83
2023/01/31 07:27:16;;;;;;;28.00;22.80;;;8.00;99.90;;;;;;5015457;28;20376;-85
2023/01/31 07:29:42;;;;;;;26.80;22.70;;;8.00;99.90;;;;;;5017556;28;20490;-85
2023/01/31 07:32:09;;;;;;;26.50;23.63;;;7.90;99.90;;;;;;5026505;28;20041;-85
2023/01/31 07:34:35;;;;;;;32.03;27.90;;;7.80;99.90;;;;;;5014986;28;20041;-86
2023/01/31 07:37:01;;;;;;;48.90;35.70;;;7.90;99.90;;;;;;4999833;28;20479;-87
2023/01/31 07:39:28;;;;;;;50.47;34.67;;;7.70;99.90;;;;;;5019340;28;20038;-84
2023/01/31 07:41:54;;;;;;;61.70;41.85;;;7.80;99.90;;;;;;5021676;28;20025;-89
2023/01/31 07:44:20;;;;;;;43.10;32.47;;;7.80;99.90;;;;;;5007043;28;20037;-84
2023/01/31 07:46:47;;;;;;;33.25;27.35;;;7.80;99.90;;;;;;4998608;28;20056;-85
2023/01/31 07:49:13;;;;;;;35.17;27.55;;;7.80;99.90;;;;;;5015111;28;20038;-87
2023/01/31 07:51:39;;;;;;;39.17;27.07;;;7.80;99.90;;;;;;5000092;28;20036;-86
2023/01/31 07:54:05;;;;;;;26.58;20.65;;;7.90;99.90;;;;;;5001076;28;20037;-86
2023/01/31 07:56:32;;;;;;;31.30;21.47;;;7.80;99.90;;;;;;4995866;28;20046;-86
2023/01/31 07:58:58;;;;;;;45.65;30.25;;;7.90;99.90;;;;;;5001812;28;20044;-86
2023/01/31 08:04:10;;;;;;;31.07;22.13;;;8.00;99.90;;;;;;5020555;28;20120;-84
2023/01/31 08:06:37;;;;;;;28.80;20.60;;;8.10;99.90;;;;;;5031724;28;20048;-86
2023/01/31 08:09:03;;;;;;;22.42;19.67;;;8.10;99.90;;;;;;5010772;28;20033;-87
2023/01/31 08:11:29;;;;;;;22.73;19.17;;;8.20;99.90;;;;;;5013365;28;20038;-86
2023/01/31 08:13:55;;;;;;;30.98;20.98;;;8.20;99.90;;;;;;4996928;28;20057;-90
2023/01/31 08:16:21;;;;;;;24.77;21.70;;;8.20;99.90;;;;;;5013010;28;20034;-90
2023/01/31 08:18:48;;;;;;;25.30;22.83;;;8.30;99.90;;;;;;5017329;28;20034;-91
2023/01/31 08:21:14;;;;;;;32.58;26.23;;;8.30;99.90;;;;;;5016966;28;20041;-90
2023/01/31 08:23:40;;;;;;;37.15;25.70;;;8.40;99.90;;;;;;5017322;28;20041;-90
2023/01/31 08:26:09;;;;;;;47.97;36.03;;;8.40;99.90;;;;;;5014226;28;20049;-91
2023/01/31 08:28:36;;;;;;;32.40;26.77;;;8.50;99.90;;;;;;5014829;28;20030;-90
2023/01/31 08:31:02;;;;;;;32.58;25.75;;;8.50;99.90;;;;;;5015642;28;20410;-91
2023/01/31 08:33:28;;;;;;;27.92;24.90;;;8.60;99.90;;;;;;4996967;28;20041;-91
2023/01/31 08:35:55;;;;;;;29.65;25.45;;;8.70;99.90;;;;;;5016791;28;20501;-91
2023/01/31 08:38:21;;;;;;;342.48;43.47;;;8.60;99.90;;;;;;4984850;28;20030;-92
2023/01/31 08:40:47;;;;;;;219.88;32.45;;;8.70;99.90;;;;;;5000771;28;20052;-90
2023/01/31 08:43:13;;;;;;;29.20;21.25;;;8.70;99.90;;;;;;5000643;28;20053;-92
2023/01/31 08:45:40;;;;;;;31.10;20.08;;;8.70;99.90;;;;;;5011277;28;20041;-93
2023/01/31 08:48:06;;;;;;;23.08;20.58;;;8.70;99.90;;;;;;5004648;28;20041;-92
2023/01/31 08:50:32;;;;;;;26.30;22.02;;;8.60;99.90;;;;;;5000954;28;20048;-92
2023/01/31 08:52:59;;;;;;;22.60;20.38;;;8.70;99.90;;;;;;5000157;28;20038;-91
2023/01/31 08:55:26;;;;;;;330.60;39.13;;;8.70;99.90;;;;;;5016296;28;20037;-92
2023/01/31 08:57:52;;;;;;;98.63;27.10;;;8.70;99.90;;;;;;5012726;28;20042;-92
2023/01/31 09:00:19;;;;;;;28.67;21.55;;;8.80;99.90;;;;;;5012815;28;20050;-91
2023/01/31 09:02:51;;;;;;;25.08;21.13;;;8.80;99.90;;;;;;4996272;28;20041;-92
2023/01/31 09:05:17;;;;;;;23.85;21.55;;;8.80;99.90;;;;;;5005082;28;20052;-91
2023/01/31 09:07:43;;;;;;;23.33;20.48;;;8.80;99.90;;;;;;5000808;28;20406;-91
2023/01/31 09:10:10;;;;;;;26.25;20.55;;;8.80;99.90;;;;;;4993155;28;20049;-91
2023/01/31 09:12:36;;;;;;;28.17;20.10;;;8.80;99.90;;;;;;5017073;28;20052;-93
2023/01/31 09:15:02;;;;;;;23.15;19.88;;;8.80;99.90;;;;;;5012057;28;20491;-94
2023/01/31 09:17:29;;;;;;;27.60;22.25;;;8.90;99.90;;;;;;4999459;28;20049;-88
2023/01/31 09:19:56;;;;;;;27.25;22.15;;;8.90;99.90;;;;;;5015109;28;20034;-89
2023/01/31 09:22:22;;;;;;;25.95;21.10;;;8.90;99.90;;;;;;5015570;28;20045;-89
2023/01/31 09:24:48;;;;;;;24.27;21.08;;;8.90;99.90;;;;;;5015637;28;20227;-88
2023/01/31 09:27:14;;;;;;;28.52;21.77;;;8.90;99.90;;;;;;5029433;28;20045;-89
2023/01/31 09:29:40;;;;;;;25.52;20.55;;;8.90;99.90;;;;;;5014224;28;20046;-89
2023/01/31 09:32:06;;;;;;;25.52;21.42;;;8.90;99.90;;;;;;5002611;28;20395;-88
2023/01/31 09:34:33;;;;;;;25.75;21.00;;;8.90;99.90;;;;;;4996328;28;20060;-87
2023/01/31 09:36:59;;;;;;;24.13;20.60;;;8.90;99.90;;;;;;5006402;28;20400;-87
2023/01/31 09:39:26;;;;;;;27.75;20.50;;;9.00;99.90;;;;;;5005305;28;20124;-89
2023/01/31 09:42:12;;;;;;;26.48;21.45;;;9.00;99.90;;;;;;5010539;28;20403;-84
2023/01/31 09:44:42;;;;;;;24.38;20.85;;;8.90;99.90;;;;;;5009760;28;20037;-86
2023/01/31 09:47:27;;;;;;;24.10;20.48;;;8.90;99.90;;;;;;5008823;28;20072;-91
2023/01/31 09:49:58;;;;;;;24.50;20.80;;;8.90;99.90;;;;;;5016351;28;20026;-92
2023/01/31 09:52:27;;;;;;;38.05;34.03;;;8.90;99.90;;;;;;5007663;28;20038;-92
2023/01/31 09:54:53;;;;;;;24.52;21.88;;;8.90;99.90;;;;;;5004537;28;20037;-93
2023/01/31 09:57:35;;;;;;;28.85;22.00;;;8.80;99.90;;;;;;5003743;28;20026;-91
2023/01/31 10:00:24;;;;;;;29.38;23.20;;;8.80;99.90;;;;;;5022147;28;20034;-92
2023/01/31 10:03:06;;;;;;;33.92;25.75;;;8.80;99.90;;;;;;5001885;28;20034;-91
2023/01/31 10:05:39;;;;;;;29.33;21.75;;;8.80;99.90;;;;;;5018937;28;20379;-91
2023/01/31 10:08:28;;;;;;;73.30;22.35;;;8.90;99.90;;;;;;5019171;28;20038;-90
2023/01/31 10:10:55;;;;;;;165.13;27.77;;;8.90;99.90;;;;;;5025997;28;20042;-90
2023/01/31 10:13:35;;;;;;;30.00;20.73;;;8.90;99.90;;;;;;5010742;28;20060;-89
2023/01/31 10:16:16;;;;;;;23.48;21.02;;;8.80;99.90;;;;;;5015564;28;20436;-90
2023/01/31 10:18:44;;;;;;;;;;;8.90;99.90;;;;;;5016812;28;20048;-92
2023/01/31 10:21:18;;;;;;;21.92;19.27;;;8.90;99.90;;;;;;5042793;28;19905;-91
2023/01/31 10:23:49;;;;;;;23.02;19.02;;;9.00;99.90;;;;;;5015628;28;20022;-89
2023/01/31 10:26:24;;;;;;;21.30;19.25;;;9.10;99.90;;;;;;5016493;28;20061;-91
2023/01/31 10:29:00;;;;;;;29.08;19.92;;;9.10;99.90;;;;;;5016506;28;20386;-88
2023/01/31 10:31:30;;;;;;;26.45;20.40;;;9.10;99.90;;;;;;5011153;28;20405;-87
2023/01/31 10:34:16;;;;;;;21.10;18.52;;;9.10;99.90;;;;;;5014079;28;20466;-89
2023/01/31 10:37:06;;;;;;;20.20;18.30;;;8.80;99.90;;;;;;5004470;28;20033;-88
2023/01/31 10:39:45;;;;;;;24.50;18.10;;;8.70;99.90;;;;;;5009421;28;20033;-89
2023/01/31 10:42:30;;;;;;;25.52;18.63;;;8.80;99.90;;;;;;5011748;28;20021;-92
2023/01/31 10:45:08;;;;;;;19.90;16.77;;;8.90;99.90;;;;;;5010515;28;20034;-86
2023/01/31 10:48:00;;;;;;;25.30;18.00;;;8.90;99.90;;;;;;5015303;28;20491;-87
2023/01/31 10:50:26;;;;;;;;;;;8.90;99.90;;;;;;5011543;28;20034;-88
2023/01/31 10:53:03;;;;;;;22.45;16.60;;;9.00;99.90;;;;;;5034061;28;19947;-90
2023/01/31 10:55:29;;;;;;;22.13;17.75;;;9.10;99.90;;;;;;5019651;28;20037;-90
2023/01/31 10:57:56;;;;;;;17.85;15.85;;;9.10;99.90;;;;;;5037071;28;20397;-93
2023/01/31 11:00:24;;;;;;;20.63;15.73;;;9.10;99.90;;;;;;5002618;28;20034;-90
2023/01/31 11:02:50;;;;;;;26.80;17.58;;;9.10;99.90;;;;;;5017217;28;20030;-88
2023/01/31 11:05:21;;;;;;;22.60;18.02;;;9.20;99.90;;;;;;5016402;28;20040;-87
2023/01/31 11:07:47;;;;;;;23.95;18.25;;;9.20;99.90;;;;;;4997547;28;20042;-88
2023/01/31 11:10:27;;;;;;;21.77;17.65;;;8.90;99.90;;;;;;4985462;28;20029;-87
2023/01/31 11:13:03;;;;;;;25.02;18.92;;;8.70;99.90;;;;;;5017547;28;20029;-87
2023/01/31 11:15:38;;;;;;;30.42;20.70;;;8.70;99.90;;;;;;5016657;28;20517;-88
2023/01/31 11:18:04;;;;;;;31.20;21.77;;;8.70;99.90;;;;;;5017929;28;20378;-88
2023/01/31 11:20:51;;;;;;;22.67;16.23;;;8.90;99.90;;;;;;5007166;28;20032;-88
2023/01/31 11:23:21;;;;;;;18.48;16.58;;;9.00;99.90;;;;;;5033663;28;20048;-89
2023/01/31 11:25:48;;;;;;;20.23;16.73;;;8.80;99.90;;;;;;5002948;28;20379;-89
2023/01/31 11:28:20;;;;;;;21.70;16.75;;;8.70;99.90;;;;;;4997485;28;20049;-89
2023/01/31 11:30:48;;;;;;;22.17;16.23;;;8.70;99.90;;;;;;4996238;28;20029;-86
2023/01/31 11:33:39;;;;;;;25.63;19.30;;;8.70;99.90;;;;;;5015510;28;20376;-85
2023/01/31 11:36:13;;;;;;;22.20;16.90;;;8.70;99.90;;;;;;5035295;28;20494;-87
2023/01/31 11:38:39;;;;;;;27.38;18.48;;;8.90;99.90;;;;;;4998223;28;20364;-89
2023/01/31 11:41:24;;;;;;;18.67;16.42;;;9.00;99.90;;;;;;5014991;28;20060;-87
2023/01/31 11:43:50;;;;;;;21.23;17.52;;;8.90;99.90;;;;;;5033026;28;20041;-90
2023/01/31 11:46:16;;;;;;;22.67;18.35;;;8.90;99.90;;;;;;5010013;28;20520;-88
2023/01/31 11:48:42;;;;;;;17.40;15.55;;;8.80;99.90;;;;;;4987552;28;20029;-86
2023/01/31 11:51:09;;;;;;;20.45;18.40;;;8.80;99.90;;;;;;5015825;28;20029;-89
2023/01/31 11:53:43;;;;;;;20.15;17.88;;;8.80;99.90;;;;;;5016133;28;20052;-89
2023/01/31 11:56:16;;;;;;;16.02;14.65;;;8.90;99.90;;;;;;5012930;28;20251;-88
2023/01/31 11:58:42;;;;;;;22.48;19.75;;;8.90;99.90;;;;;;5009773;28;20394;-90
2023/01/31 12:01:16;;;;;;;21.63;19.65;;;8.80;99.90;;;;;;5008801;28;20034;-88
2023/01/31 12:03:46;;;;;;;19.73;17.75;;;9.00;99.90;;;;;;5016942;28;20056;-87
2023/01/31 12:06:24;;;;;;;21.23;18.85;;;8.90;99.90;;;;;;4994677;28;20037;-88
2023/01/31 12:08:52;;;;;;;19.70;17.58;;;8.80;99.90;;;;;;5001059;28;20053;-90
2023/01/31 12:11:19;;;;;;;18.98;17.05;;;8.80;99.90;;;;;;4989751;28;20037;-89
2023/01/31 12:13:49;;;;;;;23.67;20.00;;;8.80;99.90;;;;;;5033335;28;20148;-90
2023/01/31 12:16:25;;;;;;;19.95;17.83;;;8.90;99.90;;;;;;5016738;28;20033;-90
2023/01/31 12:18:57;;;;;;;18.95;17.23;;;9.00;99.90;;;;;;5016891;28;20033;-89
2023/01/31 12:21:29;;;;;;;27.02;22.13;;;9.00;99.90;;;;;;5034463;28;20383;-89
2023/01/31 12:24:14;;;;;;;18.33;16.77;;;9.10;99.90;;;;;;5015463;28;20045;-90
2023/01/31 12:26:56;;;;;;;23.23;17.35;;;9.20;99.90;;;;;;5022735;28;20479;-90
2023/01/31 12:29:57;;;;;;;26.67;20.35;;;9.20;99.90;;;;;;5017223;28;20041;-89
2023/01/31 12:32:42;;;;;;;;;;;9.20;99.90;;;;;;4992342;28;20033;-89
2023/01/31 12:35:17;;;;;;;21.98;16.88;;;9.20;99.90;;;;;;4992771;28;20002;-89
2023/01/31 12:37:52;;;;;;;21.45;16.98;;;9.10;99.90;;;;;;4992176;28;20069;-90
2023/01/31 12:40:37;;;;;;;17.85;16.05;;;9.10;99.90;;;;;;4992203;28;20038;-90
2023/01/31 12:43:12;;;;;;;20.08;18.00;;;9.20;99.90;;;;;;4976914;28;20399;-88
2023/01/31 12:45:52;;;;;;;21.20;16.55;;;9.30;99.90;;;;;;4977033;28;20034;-90
2023/01/31 12:48:31;;;;;;;25.60;18.87;;;9.30;99.90;;;;;;4976438;28;20050;-90
2023/01/31 12:51:16;;;;;;;21.00;18.75;;;9.20;99.90;;;;;;4976955;28;20030;-89
2023/01/31 12:53:54;;;;;;;17.80;16.20;;;9.10;99.90;;;;;;4974587;28;20030;-90
2023/01/31 12:56:23;;;;;;;19.85;16.52;;;9.30;99.90;;;;;;4976663;28;20042;-90
2023/01/31 12:58:53;;;;;;;17.88;15.95;;;9.30;99.90;;;;;;4975998;28;20038;-90
2023/01/31 13:01:30;;;;;;;23.13;17.73;;;9.30;99.90;;;;;;4975810;28;20037;-90